createdAt,value
2017-11-24T00:00:31.935Z,14.43
2017-11-24T00:02:59.474Z,16.83
2017-11-24T00:05:27.283Z,12.37
2017-11-24T00:07:55.118Z,15.33
2017-11-24T00:10:22.642Z,21.27
2017-11-24T00:12:50.185Z,19.20
2017-11-24T00:15:17.719Z,22.13
2017-11-24T00:17:45.528Z,27.20
2017-11-24T00:20:13.043Z,19.07
2017-11-24T00:22:40.573Z,16.90
2017-11-24T00:25:08.878Z,22.03
2017-11-24T00:27:36.421Z,18.10
2017-11-24T00:30:04.269Z,18.83
2017-11-24T00:32:32.561Z,18.17
2017-11-24T00:35:00.081Z,17.10
2017-11-24T00:37:27.610Z,15.10
2017-11-24T00:39:55.129Z,16.80
2017-11-24T00:42:23.734Z,16.57
2017-11-24T00:44:51.270Z,17.20
2017-11-24T00:47:19.545Z,16.90
2017-11-24T00:49:47.866Z,19.73
2017-11-24T00:52:15.403Z,17.63
2017-11-24T00:54:43.276Z,17.07
2017-11-24T00:57:10.824Z,17.67
2017-11-24T00:59:38.373Z,20.10
2017-11-24T01:02:05.936Z,24.23
2017-11-24T01:04:34.243Z,19.93
2017-11-24T01:07:02.131Z,22.37
2017-11-24T01:09:29.655Z,19.57
2017-11-24T01:11:57.182Z,18.10
2017-11-24T01:14:24.723Z,15.00
2017-11-24T01:16:52.247Z,22.37
2017-11-24T01:19:20.029Z,21.80
2017-11-24T01:21:47.570Z,19.20
2017-11-24T01:24:15.101Z,19.10
2017-11-24T01:26:42.661Z,20.30
2017-11-24T01:29:10.192Z,24.13
2017-11-24T01:31:37.738Z,24.90
2017-11-24T01:34:05.255Z,27.20
2017-11-24T01:36:32.788Z,20.03
2017-11-24T01:39:00.377Z,22.20
2017-11-24T01:41:28.653Z,20.33
2017-11-24T01:43:56.922Z,20.73
2017-11-24T01:46:25.234Z,20.50
2017-11-24T01:48:52.734Z,20.27
2017-11-24T01:51:20.557Z,17.73
2017-11-24T01:53:48.078Z,24.10
2017-11-24T01:56:15.595Z,24.03
2017-11-24T01:58:43.149Z,19.10
2017-11-24T02:01:10.660Z,18.43
2017-11-24T02:03:38.441Z,18.97
2017-11-24T02:06:06.735Z,27.70
2017-11-24T02:08:35.185Z,20.90
2017-11-24T02:11:02.741Z,26.73
2017-11-24T02:13:30.244Z,24.50
2017-11-24T02:15:58.043Z,24.03
2017-11-24T02:18:25.564Z,24.40
2017-11-24T02:20:53.075Z,23.23
2017-11-24T02:23:20.625Z,23.30
2017-11-24T02:25:48.155Z,27.00
2017-11-24T02:28:16.006Z,22.67
2017-11-24T02:30:43.523Z,26.07
2017-11-24T02:33:11.062Z,24.87
2017-11-24T02:35:38.658Z,23.77
2017-11-24T02:38:06.181Z,27.63
2017-11-24T02:40:34.001Z,19.37
2017-11-24T02:43:02.287Z,22.60
2017-11-24T02:45:29.810Z,25.13
2017-11-24T02:47:57.350Z,27.40
2017-11-24T02:50:24.866Z,24.60
2017-11-24T02:52:52.742Z,26.83
2017-11-24T02:55:20.337Z,25.80
2017-11-24T02:57:47.878Z,23.90
2017-11-24T03:00:15.427Z,28.33
2017-11-24T03:02:42.934Z,23.23
2017-11-24T03:05:10.751Z,31.00
2017-11-24T03:07:38.276Z,23.70
2017-11-24T03:10:06.569Z,28.63
2017-11-24T03:12:35.596Z,21.10
2017-11-24T03:15:03.123Z,24.77
2017-11-24T03:17:31.730Z,24.00
2017-11-24T03:19:59.245Z,19.07
2017-11-24T03:22:26.761Z,26.83
2017-11-24T03:24:54.304Z,32.43
2017-11-24T03:27:21.815Z,26.83
2017-11-24T03:29:49.655Z,21.60
2017-11-24T03:32:17.187Z,24.27
2017-11-24T03:34:44.716Z,19.83
2017-11-24T03:37:12.250Z,23.20
2017-11-24T03:39:39.772Z,22.20
2017-11-24T03:42:07.665Z,23.50
2017-11-24T03:44:35.177Z,26.00
2017-11-24T03:47:02.682Z,26.50
2017-11-24T03:49:30.214Z,22.47
2017-11-24T03:51:57.736Z,24.70
2017-11-24T03:54:25.662Z,22.53
2017-11-24T03:56:53.171Z,21.27
2017-11-24T03:59:20.687Z,22.00
2017-11-24T04:01:48.246Z,16.77
2017-11-24T04:04:15.759Z,18.13
2017-11-24T04:06:44.234Z,19.27
2017-11-24T04:09:11.743Z,18.03
2017-11-24T04:11:39.248Z,20.17
2017-11-24T04:14:06.779Z,22.10
2017-11-24T04:16:34.291Z,21.77
2017-11-24T04:19:02.102Z,21.97
2017-11-24T04:21:29.616Z,21.57
2017-11-24T04:23:57.920Z,23.37
2017-11-24T04:26:25.467Z,20.57
2017-11-24T04:28:52.979Z,25.80
2017-11-24T04:31:20.807Z,23.20
2017-11-24T04:33:48.306Z,21.20
2017-11-24T04:36:15.820Z,17.00
2017-11-24T04:38:43.371Z,17.57
2017-11-24T04:41:13.912Z,17.23
2017-11-24T04:43:41.763Z,19.03
2017-11-24T04:46:09.279Z,19.30
2017-11-24T04:48:36.787Z,21.00
2017-11-24T04:51:04.318Z,19.00
2017-11-24T04:53:31.840Z,23.50
2017-11-24T04:55:59.688Z,23.97
2017-11-24T04:58:27.203Z,23.03
2017-11-24T05:00:54.714Z,21.40
2017-11-24T05:03:22.261Z,21.67
2017-11-24T05:05:49.777Z,27.63
2017-11-24T05:08:17.593Z,22.20
2017-11-24T05:10:45.103Z,28.73
2017-11-24T05:13:12.605Z,23.57
2017-11-24T05:15:40.151Z,22.57
2017-11-24T05:18:07.670Z,19.43
2017-11-24T05:20:35.487Z,25.60
2017-11-24T05:23:03.012Z,24.80
2017-11-24T05:25:30.575Z,29.87
2017-11-24T05:27:58.156Z,24.93
2017-11-24T05:30:25.659Z,24.43
2017-11-24T05:32:53.493Z,22.63
2017-11-24T05:35:21.025Z,30.60
2017-11-24T05:37:48.555Z,23.97
2017-11-24T05:40:16.108Z,23.00
2017-11-24T05:42:43.623Z,21.90
2017-11-24T05:45:11.925Z,20.20
2017-11-24T05:47:39.466Z,26.00
2017-11-24T05:50:07.270Z,21.40
2017-11-24T05:52:34.786Z,22.30
2017-11-24T05:55:03.058Z,21.10
2017-11-24T05:57:30.665Z,20.77
2017-11-24T06:00:02.274Z,21.37
2017-11-24T06:02:30.828Z,24.93
2017-11-24T06:04:58.353Z,22.97
2017-11-24T06:07:25.872Z,20.87
2017-11-24T06:09:54.215Z,26.43
2017-11-24T06:12:22.500Z,23.37
2017-11-24T06:14:50.332Z,20.00
2017-11-24T06:17:17.841Z,21.53
2017-11-24T06:19:45.384Z,30.90
2017-11-24T06:22:12.944Z,23.20
2017-11-24T06:24:40.446Z,22.37
2017-11-24T06:27:08.369Z,18.90
2017-11-24T06:29:35.886Z,24.73
2017-11-24T06:32:03.414Z,28.20
2017-11-24T06:34:30.963Z,21.80
2017-11-24T06:36:58.490Z,21.60
2017-11-24T06:39:26.352Z,21.57
2017-11-24T06:41:53.889Z,23.50
2017-11-24T06:44:21.385Z,25.47
2017-11-24T06:46:49.534Z,22.03
2017-11-24T06:49:17.082Z,25.30
2017-11-24T06:51:44.600Z,21.20
2017-11-24T06:54:12.146Z,25.60
2017-11-24T06:56:39.686Z,28.13
2017-11-24T06:59:07.577Z,22.97
2017-11-24T07:01:35.116Z,23.10
2017-11-24T07:04:03.355Z,22.73
2017-11-24T07:06:31.672Z,21.53
2017-11-24T07:08:59.198Z,24.23
2017-11-24T07:11:28.178Z,21.80
2017-11-24T07:13:55.727Z,19.13
2017-11-24T07:16:23.234Z,26.50
2017-11-24T07:18:50.790Z,22.93
2017-11-24T07:21:18.316Z,25.87
2017-11-24T07:23:46.113Z,23.57
2017-11-24T07:26:13.652Z,32.00
2017-11-24T07:28:41.174Z,22.17
2017-11-24T07:31:09.010Z,33.70
2017-11-24T07:33:36.534Z,17.13
2017-11-24T07:36:04.402Z,23.03
2017-11-24T07:38:31.915Z,20.53
2017-11-24T07:40:59.417Z,20.83
2017-11-24T07:43:26.968Z,17.60
2017-11-24T07:45:54.486Z,22.20
2017-11-24T07:48:22.472Z,23.40
2017-11-24T07:50:50.149Z,21.10
2017-11-24T07:53:17.695Z,23.90
2017-11-24T07:55:45.232Z,16.13
2017-11-24T07:58:12.745Z,19.77
2017-11-24T08:00:41.335Z,18.30
2017-11-24T08:03:08.959Z,21.43
2017-11-24T08:05:36.482Z,18.87
2017-11-24T08:08:04.787Z,25.83
2017-11-24T08:10:32.318Z,20.37
2017-11-24T08:13:00.220Z,18.20
2017-11-24T08:15:27.742Z,20.37
2017-11-24T08:17:56.025Z,21.00
2017-11-24T08:20:23.591Z,20.80
2017-11-24T08:22:51.813Z,22.07
2017-11-24T08:25:19.655Z,18.10
2017-11-24T08:27:47.188Z,16.30
2017-11-24T08:30:14.726Z,19.97
2017-11-24T08:32:42.272Z,20.27
2017-11-24T08:35:09.782Z,17.13
2017-11-24T08:37:38.305Z,14.47
2017-11-24T08:40:05.832Z,20.90
2017-11-24T08:42:33.628Z,22.30
2017-11-24T08:45:01.178Z,18.73
2017-11-24T08:47:34.770Z,22.13
2017-11-24T08:50:02.288Z,19.87
2017-11-24T08:52:29.811Z,17.80
2017-11-24T08:54:57.780Z,18.03
2017-11-24T08:57:25.296Z,14.87
2017-11-24T08:59:52.794Z,18.20
2017-11-24T09:02:20.346Z,16.87
2017-11-24T09:04:47.865Z,16.10
2017-11-24T09:07:15.664Z,17.30
2017-11-24T09:09:43.191Z,17.97
2017-11-24T09:12:10.733Z,14.17
2017-11-24T09:14:39.062Z,16.57
2017-11-24T09:17:06.562Z,14.43
2017-11-24T09:19:34.492Z,18.20
2017-11-24T09:22:02.024Z,13.83
2017-11-24T09:24:29.565Z,17.60
2017-11-24T09:26:57.882Z,16.00
2017-11-24T09:29:25.384Z,11.73
2017-11-24T09:31:53.226Z,16.90
2017-11-24T09:34:20.745Z,14.80
2017-11-24T09:36:48.286Z,17.90
2017-11-24T09:39:15.827Z,16.57
2017-11-24T09:41:43.354Z,13.70
2017-11-24T09:44:10.899Z,14.50
2017-11-24T09:46:38.412Z,13.67
2017-11-24T09:49:05.965Z,19.20
2017-11-24T09:51:33.541Z,14.40
2017-11-24T09:54:01.107Z,15.80
2017-11-24T09:56:28.647Z,18.33
2017-11-24T09:58:56.200Z,17.37
2017-11-24T10:01:23.748Z,18.97
2017-11-24T10:03:51.316Z,17.63
2017-11-24T10:06:18.901Z,13.27
2017-11-24T10:08:46.430Z,12.57
2017-11-24T10:11:14.053Z,11.00
2017-11-24T10:13:42.382Z,14.70
2017-11-24T10:16:09.932Z,18.97
2017-11-24T10:18:37.469Z,14.37
2017-11-24T10:21:10.618Z,12.87
2017-11-24T10:23:38.152Z,12.37
2017-11-24T10:26:06.498Z,11.60
2017-11-24T10:28:34.051Z,15.03
2017-11-24T10:31:01.616Z,17.57
2017-11-24T10:33:29.219Z,14.30
2017-11-24T10:35:56.756Z,16.10
2017-11-24T10:38:24.254Z,11.90
2017-11-24T10:40:52.618Z,18.00
2017-11-24T10:43:20.194Z,10.10
2017-11-24T10:45:47.719Z,12.10
2017-11-24T10:48:15.238Z,12.57
2017-11-24T10:50:43.584Z,11.77
2017-11-24T10:53:11.114Z,12.60
2017-11-24T10:55:38.635Z,14.20
2017-11-24T10:58:06.959Z,11.43
2017-11-24T11:00:35.280Z,13.63
2017-11-24T11:03:03.092Z,10.20
2017-11-24T11:05:30.643Z,12.50
2017-11-24T11:07:58.161Z,16.37
2017-11-24T11:10:25.689Z,15.97
2017-11-24T11:12:53.237Z,11.70
2017-11-24T11:15:21.099Z,11.47
2017-11-24T11:17:48.654Z,9.60
2017-11-24T11:20:16.189Z,9.17
2017-11-24T11:22:44.525Z,16.73
2017-11-24T11:25:12.048Z,9.97
2017-11-24T11:27:39.873Z,14.20
2017-11-24T11:30:07.415Z,7.93
2017-11-24T11:32:34.928Z,7.93
2017-11-24T11:35:03.381Z,5.70
2017-11-24T11:37:30.892Z,7.20
2017-11-24T11:39:58.749Z,5.53
2017-11-24T11:42:26.259Z,8.20
2017-11-24T11:44:53.791Z,5.57
2017-11-24T11:47:21.340Z,9.77
2017-11-24T11:49:48.871Z,15.40
2017-11-24T11:52:17.427Z,7.03
2017-11-24T11:54:44.932Z,7.83
2017-11-24T11:57:12.464Z,6.73
2017-11-24T11:59:40.780Z,5.60
2017-11-24T12:02:08.338Z,3.50
2017-11-24T12:04:36.287Z,4.30
2017-11-24T12:07:03.803Z,3.43
2017-11-24T12:09:31.325Z,3.57
2017-11-24T12:11:58.852Z,3.77
2017-11-24T12:14:27.139Z,3.90
2017-11-24T12:16:55.815Z,4.53
2017-11-24T12:19:24.090Z,5.23
2017-11-24T12:21:51.609Z,3.40
2017-11-24T12:24:19.129Z,3.77
2017-11-24T12:26:47.418Z,3.63
2017-11-24T12:29:15.295Z,4.57
2017-11-24T12:31:43.272Z,11.80
2017-11-24T12:34:10.782Z,3.43
2017-11-24T12:36:38.365Z,3.70
2017-11-24T12:39:05.877Z,5.10
2017-11-24T12:41:33.738Z,3.60
2017-11-24T12:44:01.319Z,3.67
2017-11-24T12:46:28.810Z,3.67
2017-11-24T12:48:56.340Z,4.27
2017-11-24T12:51:23.838Z,3.50
2017-11-24T12:53:51.637Z,4.20
2017-11-24T12:56:19.189Z,7.57
2017-11-24T12:58:46.719Z,3.73
2017-11-24T13:01:15.325Z,7.47
2017-11-24T13:03:42.823Z,3.93
2017-11-24T13:06:10.332Z,4.17
2017-11-24T13:08:37.872Z,4.77
2017-11-24T13:11:06.154Z,4.37
2017-11-24T13:13:33.965Z,4.90
2017-11-24T13:16:01.500Z,3.87
2017-11-24T13:18:29.033Z,4.90
2017-11-24T13:20:57.333Z,6.80
2017-11-24T13:23:24.851Z,4.10
2017-11-24T13:25:52.394Z,5.37
2017-11-24T13:28:19.924Z,4.27
2017-11-24T13:30:47.792Z,3.80
2017-11-24T13:33:15.305Z,4.23
2017-11-24T13:35:42.819Z,3.70
2017-11-24T13:38:10.359Z,3.63
2017-11-24T13:40:37.885Z,4.43
2017-11-24T13:43:05.797Z,4.00
2017-11-24T13:48:12.713Z,3.90
2017-11-24T13:50:40.997Z,3.90
2017-11-24T13:53:08.519Z,4.43
2017-11-24T13:55:36.047Z,4.83
2017-11-24T13:58:03.782Z,4.57
2017-11-24T14:00:32.567Z,4.10
2017-11-24T14:03:00.095Z,6.00
2017-11-24T14:05:27.620Z,8.60
2017-11-24T14:07:55.548Z,10.37
2017-11-24T14:10:23.733Z,14.27
2017-11-24T14:12:51.491Z,14.10
2017-11-24T14:15:19.899Z,13.60
2017-11-24T14:17:47.771Z,15.13
2017-11-24T14:20:15.583Z,9.10
2017-11-24T14:22:43.126Z,19.20
2017-11-24T14:25:10.863Z,9.70
2017-11-24T14:27:38.423Z,19.07
2017-11-24T14:30:05.954Z,13.03
2017-11-24T14:32:34.535Z,12.60
2017-11-24T14:35:02.051Z,15.07
2017-11-24T14:37:30.338Z,13.33
2017-11-24T14:39:58.657Z,12.90
2017-11-24T14:42:26.986Z,11.80
2017-11-24T14:44:56.131Z,8.03
2017-11-24T14:47:24.001Z,12.10
2017-11-24T14:49:51.511Z,10.20
2017-11-24T14:52:20.898Z,11.23
2017-11-24T14:54:48.413Z,12.97
2017-11-24T14:57:16.303Z,16.53
2017-11-24T14:59:44.551Z,13.50
2017-11-24T15:02:16.785Z,14.87
2017-11-24T15:04:45.110Z,13.47
2017-11-24T15:07:12.651Z,11.93
2017-11-24T15:09:40.228Z,14.57
2017-11-24T15:12:07.814Z,16.47
2017-11-24T15:14:35.679Z,20.60
2017-11-24T15:17:03.196Z,13.27
2017-11-24T15:19:30.717Z,11.27
2017-11-24T15:21:58.325Z,11.83
2017-11-24T15:24:25.909Z,10.00
2017-11-24T15:26:55.699Z,12.37
2017-11-24T15:29:23.229Z,12.23
2017-11-24T15:31:50.745Z,9.90
2017-11-24T15:34:18.298Z,13.53
2017-11-24T15:36:45.863Z,12.87
2017-11-24T15:39:14.516Z,10.20
2017-11-24T15:41:42.782Z,14.53
2017-11-24T15:44:18.685Z,8.10
2017-11-24T15:46:46.205Z,8.57
2017-11-24T15:49:14.505Z,9.70
2017-11-24T15:51:42.104Z,10.90
2017-11-24T15:54:09.670Z,11.10
2017-11-24T15:56:37.501Z,15.80
2017-11-24T15:59:09.187Z,10.50
2017-11-24T16:01:36.743Z,10.30
2017-11-24T16:04:04.295Z,10.60
2017-11-24T16:06:31.815Z,9.93
2017-11-24T16:08:59.734Z,10.47
2017-11-24T16:11:27.241Z,12.80
2017-11-24T16:13:55.554Z,15.53
2017-11-24T16:16:23.117Z,12.57
2017-11-24T16:18:50.639Z,12.50
2017-11-24T16:21:18.446Z,11.70
2017-11-24T16:23:45.972Z,14.00
2017-11-24T16:26:13.691Z,9.90
2017-11-24T16:28:41.282Z,11.77
2017-11-24T16:31:08.816Z,13.77
2017-11-24T16:33:36.677Z,14.00
2017-11-24T16:36:04.232Z,13.73
2017-11-24T16:38:39.461Z,11.40
2017-11-24T16:41:07.080Z,10.07
2017-11-24T16:43:35.394Z,8.90
2017-11-24T16:46:03.345Z,12.83
2017-11-24T16:48:30.911Z,13.47
2017-11-24T16:50:58.448Z,12.37
2017-11-24T16:53:26.774Z,13.60
2017-11-24T16:55:55.117Z,13.50
2017-11-24T16:58:22.707Z,9.10
2017-11-24T17:00:50.451Z,10.33
2017-11-24T17:03:19.189Z,11.03
2017-11-24T17:05:46.819Z,12.17
2017-11-24T17:08:14.353Z,12.67
2017-11-24T17:10:41.905Z,11.90
2017-11-24T17:13:09.487Z,15.07
2017-11-24T17:15:37.469Z,12.97
2017-11-24T17:18:11.588Z,18.80
2017-11-24T17:20:39.554Z,18.33
2017-11-24T17:23:07.115Z,14.17
2017-11-24T17:25:34.625Z,13.00
2017-11-24T17:28:02.667Z,20.37
2017-11-24T17:30:30.186Z,21.13
2017-11-24T17:32:58.513Z,17.90
2017-11-24T17:35:26.086Z,16.60
2017-11-24T17:37:53.715Z,16.10
2017-11-24T17:40:21.605Z,18.30
2017-11-24T17:42:49.160Z,13.97
2017-11-24T17:45:16.709Z,9.17
2017-11-24T17:47:44.274Z,9.77
2017-11-24T17:50:13.245Z,6.57
2017-11-24T17:52:42.083Z,8.87
2017-11-24T17:55:09.616Z,12.10
2017-11-24T17:57:37.192Z,9.27
2017-11-24T18:00:04.837Z,9.20
2017-11-24T18:02:32.438Z,7.90
2017-11-24T18:05:00.804Z,6.60
2017-11-24T18:07:28.375Z,5.97
2017-11-24T18:09:56.272Z,5.37
2017-11-24T18:12:23.873Z,4.10
2017-11-24T18:14:51.516Z,4.27
2017-11-24T18:17:19.457Z,3.53
2017-11-24T18:19:47.097Z,3.10
2017-11-24T18:22:16.952Z,2.87
2017-11-24T18:24:44.530Z,2.60
2017-11-24T18:27:12.108Z,3.00
2017-11-24T18:29:39.918Z,2.60
2017-11-24T18:32:07.453Z,2.27
2017-11-24T18:34:35.041Z,2.43
2017-11-24T18:37:03.925Z,2.40
2017-11-24T18:39:32.236Z,1.93
2017-11-24T18:42:00.930Z,2.93
2017-11-24T18:44:28.521Z,2.60
2017-11-24T18:46:56.052Z,2.50
2017-11-24T18:49:24.617Z,1.93
2017-11-24T18:51:52.160Z,1.90
2017-11-24T18:54:20.514Z,2.03
2017-11-24T18:56:48.044Z,2.23
2017-11-24T18:59:15.671Z,1.80
2017-11-24T19:01:45.922Z,2.50
2017-11-24T19:04:13.516Z,2.20
2017-11-24T19:06:41.056Z,2.00
2017-11-24T19:09:08.932Z,2.73
2017-11-24T19:11:37.468Z,3.63
2017-11-24T19:14:07.106Z,3.00
2017-11-24T19:16:34.750Z,4.87
2017-11-24T19:19:02.887Z,2.67
2017-11-24T19:21:33.276Z,2.17
2017-11-24T19:24:00.935Z,2.67
2017-11-24T19:26:28.514Z,2.80
2017-11-24T19:28:56.033Z,3.00
2017-11-24T19:31:24.015Z,2.40
2017-11-24T19:33:51.548Z,2.70
2017-11-24T19:36:19.068Z,3.10
2017-11-24T19:38:46.746Z,3.30
2017-11-24T19:41:14.359Z,2.93
2017-11-24T19:43:44.010Z,3.77
2017-11-24T19:46:11.568Z,3.13
2017-11-24T19:48:39.093Z,4.00
2017-11-24T19:51:06.649Z,6.60
2017-11-24T19:53:34.190Z,7.87
2017-11-24T19:56:02.125Z,8.47
2017-11-24T19:58:29.790Z,6.63
2017-11-24T20:00:57.484Z,6.40
2017-11-24T20:03:25.147Z,6.60
2017-11-24T20:05:52.755Z,5.00
2017-11-24T20:08:21.865Z,10.63
2017-11-24T20:10:50.293Z,6.23
2017-11-24T20:13:18.648Z,5.30
2017-11-24T20:15:46.285Z,4.70
2017-11-24T20:18:13.911Z,7.53
2017-11-24T20:20:41.785Z,6.33
2017-11-24T20:23:09.326Z,5.93
2017-11-24T20:25:37.647Z,6.43
2017-11-24T20:28:05.513Z,6.80
2017-11-24T20:30:33.270Z,6.80
2017-11-24T20:33:00.841Z,5.23
2017-11-24T20:35:28.430Z,4.80
2017-11-24T20:37:55.958Z,4.80
2017-11-24T20:40:23.974Z,4.33
2017-11-24T20:42:52.644Z,5.90
2017-11-24T20:45:20.262Z,5.03
2017-11-24T20:47:47.812Z,5.27
2017-11-24T20:50:15.410Z,5.27
2017-11-24T20:52:43.281Z,5.50
2017-11-24T20:55:10.795Z,5.93
2017-11-24T20:57:38.391Z,5.80
2017-11-24T21:00:05.934Z,5.60
2017-11-24T21:02:33.457Z,5.70
2017-11-24T21:05:02.577Z,8.30
2017-11-24T21:07:30.200Z,6.87
2017-11-24T21:09:57.771Z,7.60
2017-11-24T21:12:25.363Z,7.30
2017-11-24T21:14:52.969Z,7.17
2017-11-24T21:17:20.843Z,7.57
2017-11-24T21:19:48.377Z,7.13
2017-11-24T21:22:15.943Z,8.07
2017-11-24T21:24:43.665Z,8.07
2017-11-24T21:27:11.275Z,12.00
2017-11-24T21:29:39.162Z,12.90
2017-11-24T21:32:06.694Z,21.27
2017-11-24T21:34:34.279Z,18.10
2017-11-24T21:37:02.657Z,20.47
2017-11-24T21:39:30.192Z,24.70
2017-11-24T21:41:58.185Z,18.20
2017-11-24T21:44:25.724Z,17.10
2017-11-24T21:46:53.337Z,18.27
2017-11-24T21:49:20.913Z,15.43
2017-11-24T21:51:49.223Z,14.33
2017-11-24T21:54:16.907Z,12.30
2017-11-24T21:56:44.487Z,14.73
2017-11-24T21:59:12.009Z,14.47
2017-11-24T22:01:39.578Z,15.87
2017-11-24T22:04:08.438Z,18.60
2017-11-24T22:06:36.040Z,13.97
2017-11-24T22:09:03.583Z,14.37
2017-11-24T22:11:31.145Z,15.33
2017-11-24T22:13:58.679Z,15.60
2017-11-24T22:16:26.277Z,11.97
2017-11-24T22:18:53.818Z,19.53
2017-11-24T22:21:21.396Z,21.13
2017-11-24T22:23:48.933Z,36.77
2017-11-24T22:26:16.501Z,33.27
2017-11-24T22:28:44.072Z,25.90
2017-11-24T22:31:11.653Z,15.73
2017-11-24T22:33:39.192Z,19.20
2017-11-24T22:36:07.056Z,18.30
2017-11-24T22:38:34.631Z,15.20
2017-11-24T22:41:02.235Z,17.43
2017-11-24T22:43:30.586Z,20.97
2017-11-24T22:45:58.122Z,14.83
2017-11-24T22:48:25.932Z,14.20
2017-11-24T22:50:54.265Z,15.93
2017-11-24T22:53:21.847Z,12.87
2017-11-24T22:55:49.412Z,14.00
2017-11-24T22:58:17.014Z,14.70
2017-11-24T23:00:44.913Z,16.50
2017-11-24T23:03:12.522Z,15.20
2017-11-24T23:05:40.056Z,15.20
2017-11-24T23:08:08.403Z,14.83
2017-11-24T23:10:36.065Z,14.50
2017-11-24T23:13:03.903Z,17.53
2017-11-24T23:15:32.183Z,15.10
2017-11-24T23:18:00.603Z,15.30
2017-11-24T23:20:28.159Z,10.57
2017-11-24T23:22:55.694Z,13.73
2017-11-24T23:25:23.516Z,19.10
2017-11-24T23:27:51.061Z,13.47
2017-11-24T23:30:18.585Z,9.63
2017-11-24T23:32:46.229Z,7.53
2017-11-24T23:35:13.755Z,9.90
2017-11-24T23:37:41.303Z,9.83
2017-11-24T23:40:08.831Z,10.03
2017-11-24T23:42:36.622Z,11.27
2017-11-24T23:45:04.177Z,7.53
2017-11-24T23:47:31.803Z,8.20
2017-11-24T23:49:59.372Z,10.53
2017-11-24T23:52:26.870Z,9.10
2017-11-24T23:54:54.503Z,9.57
2017-11-24T23:57:22.058Z,8.93
2017-11-24T23:59:49.970Z,8.50
